Time;durP1;ratioP1;P1;durP2;ratioP2;P2;SDS_P1;SDS_P2;PMS_P1;PMS_P2;Temp;Humidity;BMP_temperature;BMP_pressure;BME280_temperature;BME280_humidity;BME280_pressure;Samples;Min_cycle;Max_cycle;Signal;HPM_P1;HPM_P2
2023/06/24 00:02:06;;;;;;;12.40;11.20;;;17.10;99.90;;;;;;5085507;28;20412;-71
2023/06/24 00:04:32;;;;;;;11.40;10.20;;;17.10;99.90;;;;;;5092387;28;20217;-70
2023/06/24 00:06:59;;;;;;;18.67;11.30;;;17.10;99.90;;;;;;5089976;28;20177;-70
2023/06/24 00:09:27;;;;;;;11.63;10.50;;;17.10;99.90;;;;;;5085521;28;20242;-71
2023/06/24 00:11:54;;;;;;;15.33;11.30;;;17.10;99.90;;;;;;5089359;28;20409;-71
2023/06/24 00:14:21;;;;;;;12.00;10.83;;;17.10;99.90;;;;;;5084357;28;20413;-70
2023/06/24 00:16:48;;;;;;;14.90;12.30;;;17.00;99.90;;;;;;5090982;28;20439;-71
2023/06/24 00:19:14;;;;;;;15.13;12.30;;;17.00;99.90;;;;;;5086378;28;20450;-71
2023/06/24 00:21:40;;;;;;;15.43;12.07;;;17.00;99.90;;;;;;5086799;28;20482;-70
2023/06/24 00:24:06;;;;;;;14.60;13.10;;;17.00;99.90;;;;;;5090419;28;20399;-69
2023/06/24 00:26:32;;;;;;;14.10;11.33;;;16.90;99.90;;;;;;5093021;28;20165;-70
2023/06/24 00:28:58;;;;;;;14.00;12.47;;;16.90;99.90;;;;;;5088608;28;20535;-70
2023/06/24 00:31:24;;;;;;;15.50;13.40;;;16.80;99.90;;;;;;5092544;28;20430;-71
2023/06/24 00:33:51;;;;;;;19.00;15.97;;;16.80;99.90;;;;;;5086888;28;20414;-70
2023/06/24 00:36:17;;;;;;;20.50;14.97;;;16.90;99.90;;;;;;5094134;28;20487;-73
2023/06/24 00:38:43;;;;;;;17.80;15.50;;;16.80;99.90;;;;;;5093780;28;20447;-70
2023/06/24 00:41:10;;;;;;;18.70;15.80;;;16.80;99.90;;;;;;5093320;28;20191;-69
2023/06/24 00:43:35;;;;;;;22.57;17.30;;;16.80;99.90;;;;;;5093579;28;20840;-71
2023/06/24 00:46:02;;;;;;;24.30;16.80;;;16.80;99.90;;;;;;5092598;28;20497;-68
2023/06/24 00:48:28;;;;;;;20.50;18.30;;;16.80;99.90;;;;;;5093544;28;20183;-70
2023/06/24 00:50:53;;;;;;;24.57;18.30;;;16.80;99.90;;;;;;5092894;28;20447;-70
2023/06/24 00:53:24;;;;;;;24.37;19.23;;;16.70;99.90;;;;;;5075149;28;20417;-70
2023/06/24 00:55:52;;;;;;;26.57;20.63;;;16.70;99.90;;;;;;5091650;28;20241;-70
2023/06/24 00:58:20;;;;;;;24.00;18.10;;;16.70;99.90;;;;;;5092776;28;20493;-70
2023/06/24 01:00:56;;;;;;;24.93;17.90;;;16.60;99.90;;;;;;5086371;28;20454;-71
2023/06/24 01:03:22;;;;;;;21.63;19.13;;;16.60;99.90;;;;;;5095346;28;20427;-70
2023/06/24 01:05:48;;;;;;;25.80;17.17;;;16.60;99.90;;;;;;5093651;28;20454;-70
2023/06/24 01:08:15;;;;;;;21.50;16.83;;;16.50;99.90;;;;;;5097908;28;20408;-70
2023/06/24 01:10:41;;;;;;;21.70;18.47;;;16.50;99.90;;;;;;5090954;28;20440;-70
2023/06/24 01:13:07;;;;;;;27.13;18.53;;;16.50;99.90;;;;;;5094255;28;20414;-70
2023/06/24 01:15:34;;;;;;;24.97;19.30;;;16.40;99.90;;;;;;5092536;28;20420;-71
2023/06/24 01:18:08;;;;;;;28.33;19.07;;;16.40;99.90;;;;;;5091603;28;20437;-71
2023/06/24 01:20:52;;;;;;;23.20;18.03;;;16.40;99.90;;;;;;5089182;28;20798;-70
2023/06/24 01:23:26;;;;;;;22.77;17.80;;;16.40;99.90;;;;;;5086040;28;20406;-70
2023/06/24 01:26:10;;;;;;;20.50;17.30;;;16.30;99.90;;;;;;5086561;28;20726;-72
2023/06/24 01:29:09;;;;;;;24.63;17.63;;;16.20;99.90;;;;;;5072195;28;20814;-70
2023/06/24 01:31:59;;;;;;;22.73;18.60;;;16.20;99.90;;;;;;5079666;28;20841;-71
2023/06/24 01:35:07;;;;;;;21.60;16.80;;;16.20;99.90;;;;;;5090720;28;20517;-70
2023/06/24 01:37:48;;;;;;;20.93;16.60;;;16.10;99.90;;;;;;5082144;28;20907;-71
2023/06/24 01:40:20;;;;;;;23.90;17.47;;;16.10;99.90;;;;;;5084677;28;20460;-70
2023/06/24 01:42:47;;;;;;;19.80;16.00;;;16.00;99.90;;;;;;5087052;28;20406;-71
2023/06/24 01:45:24;;;;;;;21.53;17.67;;;16.10;99.90;;;;;;5084932;28;20401;-71
2023/06/24 01:47:59;;;;;;;19.50;17.00;;;16.10;99.90;;;;;;5084310;28;20492;-70
2023/06/24 01:50:26;;;;;;;26.53;17.27;;;16.00;99.90;;;;;;5083829;28;20455;-70
2023/06/24 01:52:53;;;;;;;23.70;18.17;;;16.00;99.90;;;;;;5071642;28;20412;-70
2023/06/24 01:55:21;;;;;;;19.43;16.60;;;16.00;99.90;;;;;;5090249;28;20911;-71
2023/06/24 01:57:49;;;;;;;27.37;17.47;;;15.90;99.90;;;;;;5091290;28;20417;-70
2023/06/24 02:00:16;;;;;;;22.33;17.67;;;15.90;99.90;;;;;;5090904;28;20508;-70
2023/06/24 02:02:43;;;;;;;23.73;17.30;;;15.90;99.90;;;;;;5090116;28;20437;-70
2023/06/24 02:05:10;;;;;;;24.07;18.27;;;16.00;99.90;;;;;;5091120;28;20474;-69
2023/06/24 02:07:36;;;;;;;19.50;16.80;;;16.00;99.90;;;;;;5089049;28;20488;-70
2023/06/24 02:10:03;;;;;;;19.40;16.13;;;16.00;99.90;;;;;;5086191;28;20500;-69
2023/06/24 02:12:30;;;;;;;17.97;16.03;;;15.90;99.90;;;;;;5090555;28;20426;-71
2023/06/24 02:14:58;;;;;;;24.93;18.60;;;15.90;99.90;;;;;;5091126;28;20408;-70
2023/06/24 02:17:26;;;;;;;18.47;16.43;;;15.90;99.90;;;;;;5091330;28;20441;-70
2023/06/24 02:19:53;;;;;;;23.77;18.47;;;15.90;99.90;;;;;;5094472;28;20952;-70
2023/06/24 02:22:21;;;;;;;20.80;16.13;;;15.80;99.90;;;;;;5090488;28;20510;-71
2023/06/24 02:24:49;;;;;;;22.83;16.83;;;15.80;99.90;;;;;;5092537;28;20409;-70
2023/06/24 02:27:15;;;;;;;22.77;17.70;;;15.80;99.90;;;;;;5088878;28;20414;-70
2023/06/24 02:29:41;;;;;;;25.30;16.60;;;15.70;99.90;;;;;;5093800;28;20782;-71
2023/06/24 02:32:08;;;;;;;23.67;16.30;;;15.70;99.90;;;;;;5076495;28;20440;-71
2023/06/24 02:34:34;;;;;;;18.13;14.90;;;15.70;99.90;;;;;;5090962;28;20776;-71
2023/06/24 02:36:59;;;;;;;18.70;15.97;;;15.70;99.90;;;;;;5093249;28;20425;-70
2023/06/24 02:39:25;;;;;;;20.83;15.67;;;15.60;99.90;;;;;;5089446;28;20235;-70
2023/06/24 02:41:51;;;;;;;22.23;16.87;;;15.60;99.90;;;;;;5094246;28;20180;-71
2023/06/24 02:44:16;;;;;;;20.60;15.93;;;15.60;99.90;;;;;;5088702;28;20172;-71
2023/06/24 02:46:47;;;;;;;18.43;15.80;;;15.60;99.90;;;;;;5091247;28;20170;-71
2023/06/24 02:49:17;;;;;;;18.30;14.80;;;15.50;99.90;;;;;;5095185;28;20172;-71
2023/06/24 02:51:44;;;;;;;19.37;15.47;;;15.50;99.90;;;;;;5094541;28;20449;-72
2023/06/24 02:54:12;;;;;;;20.43;14.97;;;15.40;99.90;;;;;;5094968;28;20416;-70
2023/06/24 02:56:43;;;;;;;22.40;15.73;;;15.50;99.90;;;;;;5089327;28;20428;-71
2023/06/24 02:59:09;;;;;;;16.93;15.20;;;15.40;99.90;;;;;;5093630;28;20844;-70
2023/06/24 03:01:38;;;;;;;18.53;15.07;;;15.40;99.90;;;;;;5094202;28;20434;-71
2023/06/24 03:04:04;;;;;;;18.27;16.47;;;15.40;99.90;;;;;;5094054;28;20164;-70
2023/06/24 03:06:31;;;;;;;17.83;14.20;;;15.50;99.90;;;;;;5094135;28;20401;-71
2023/06/24 03:08:57;;;;;;;16.93;15.13;;;15.50;99.90;;;;;;5091228;28;20775;-71
2023/06/24 03:11:23;;;;;;;16.93;14.00;;;15.50;99.90;;;;;;5093969;28;20454;-71
2023/06/24 03:13:49;;;;;;;20.53;14.77;;;15.60;99.90;;;;;;5091750;28;20935;-70
2023/06/24 03:16:15;;;;;;;15.90;14.20;;;15.60;99.90;;;;;;5072981;28;20634;-70
2023/06/24 03:18:42;;;;;;;16.00;13.33;;;15.60;99.90;;;;;;5092403;28;20233;-69
2023/06/24 03:21:08;;;;;;;18.00;14.67;;;15.60;99.90;;;;;;5088181;28;20915;-69
2023/06/24 03:23:34;;;;;;;14.97;13.47;;;15.50;99.90;;;;;;5093528;28;20405;-70
2023/06/24 03:26:00;;;;;;;16.93;13.73;;;15.50;99.90;;;;;;5085047;28;20500;-70
2023/06/24 03:28:26;;;;;;;17.97;13.73;;;15.50;99.90;;;;;;5092368;28;20841;-70
2023/06/24 03:30:52;;;;;;;16.40;13.67;;;15.50;99.90;;;;;;5090600;28;20197;-70
2023/06/24 03:33:18;;;;;;;16.13;14.43;;;15.50;99.90;;;;;;5091953;28;20170;-69
2023/06/24 03:35:43;;;;;;;15.13;12.53;;;15.50;99.90;;;;;;5091380;28;20159;-70
2023/06/24 03:38:09;;;;;;;18.40;12.77;;;15.60;99.90;;;;;;5089953;28;20416;-71
2023/06/24 03:40:35;;;;;;;16.43;12.67;;;15.60;99.90;;;;;;5092893;28;20213;-70
2023/06/24 03:43:00;;;;;;;17.17;12.43;;;15.60;99.90;;;;;;5092942;28;20405;-70
2023/06/24 03:45:26;;;;;;;16.77;12.73;;;15.60;99.90;;;;;;5092594;28;20528;-69
2023/06/24 03:47:52;;;;;;;14.70;13.17;;;15.60;99.90;;;;;;5089830;28;20169;-69
2023/06/24 03:50:17;;;;;;;15.87;13.50;;;15.60;99.90;;;;;;5090828;28;20206;-69
2023/06/24 03:52:44;;;;;;;16.43;12.63;;;15.60;99.90;;;;;;5092551;28;20171;-69
2023/06/24 03:55:10;;;;;;;13.43;11.97;;;15.40;99.90;;;;;;5092395;28;20629;-69
2023/06/24 03:57:37;;;;;;;14.30;12.77;;;15.50;99.90;;;;;;5092186;28;20499;-69
2023/06/24 04:00:12;;;;;;;13.70;12.30;;;15.50;99.90;;;;;;5091420;28;20448;-69
2023/06/24 04:02:38;;;;;;;19.43;13.47;;;15.50;99.90;;;;;;5092174;28;20571;-69
2023/06/24 04:05:06;;;;;;;17.53;10.90;;;15.70;99.90;;;;;;5093261;28;20920;-70
2023/06/24 04:07:31;;;;;;;15.53;13.37;;;15.90;99.90;;;;;;5091981;28;20182;-69
2023/06/24 04:09:58;;;;;;;15.00;12.13;;;16.00;99.90;;;;;;5092377;28;20419;-70
2023/06/24 04:12:24;;;;;;;22.57;12.37;;;15.90;99.90;;;;;;5092231;28;20263;-71
2023/06/24 04:14:50;;;;;;;13.77;12.37;;;15.70;99.90;;;;;;5092164;28;20433;-70
2023/06/24 04:17:16;;;;;;;14.43;11.83;;;15.60;99.90;;;;;;5090821;28;20425;-71
2023/06/24 04:19:42;;;;;;;16.00;11.50;;;15.60;99.90;;;;;;5087484;28;20475;-70
2023/06/24 04:22:07;;;;;;;12.60;11.10;;;15.50;99.90;;;;;;5090085;28;20184;-69
2023/06/24 04:24:33;;;;;;;18.37;14.10;;;15.60;99.90;;;;;;5092105;28;20406;-70
2023/06/24 04:26:58;;;;;;;19.00;13.90;;;15.70;99.90;;;;;;5092300;28;20174;-69
2023/06/24 04:29:24;;;;;;;10.80;9.70;;;16.60;99.90;;;;;;5092167;28;20646;-70
2023/06/24 04:31:50;;;;;;;13.83;9.73;;;17.00;99.90;;;;;;5088399;28;20231;-70
2023/06/24 04:34:15;;;;;;;10.97;9.77;;;16.90;99.90;;;;;;5092129;28;20169;-69
2023/06/24 04:36:41;;;;;;;23.47;10.97;;;17.20;99.90;;;;;;5092020;28;20253;-69
2023/06/24 04:39:07;;;;;;;10.67;9.57;;;17.40;99.90;;;;;;5091086;28;20204;-70
2023/06/24 04:41:33;;;;;;;9.97;9.00;;;17.60;99.90;;;;;;5091914;28;20440;-71
2023/06/24 04:43:59;;;;;;;12.23;8.70;;;17.60;99.90;;;;;;5089532;28;20922;-71
2023/06/24 04:46:24;;;;;;;9.97;8.63;;;17.90;99.90;;;;;;5092090;28;20164;-71
2023/06/24 04:48:50;;;;;;;14.87;8.83;;;17.80;99.90;;;;;;5088615;28;20173;-70
2023/06/24 04:51:16;;;;;;;9.80;8.80;;;18.20;99.90;;;;;;5113647;22;20220;-72
2023/06/24 04:53:41;;;;;;;9.53;8.63;;;18.20;99.90;;;;;;5105412;28;20177;-70
2023/06/24 04:56:07;;;;;;;9.17;8.27;;;18.00;99.90;;;;;;5073140;28;20165;-70
2023/06/24 04:58:33;;;;;;;13.50;7.33;;;18.50;99.90;;;;;;5062346;28;20163;-71
2023/06/24 05:00:58;;;;;;;10.03;7.13;;;18.30;99.90;;;;;;5106661;28;20537;-69
2023/06/24 05:03:24;;;;;;;9.97;6.80;;;18.40;99.90;;;;;;5064980;28;20417;-71
2023/06/24 05:05:50;;;;;;;8.67;7.87;;;19.00;99.90;;;;;;5089668;28;20192;-71
2023/06/24 05:08:15;;;;;;;9.33;7.33;;;18.80;99.90;;;;;;5085239;28;20165;-70
2023/06/24 05:10:41;;;;;;;7.13;6.43;;;19.50;99.90;;;;;;5081027;28;20199;-70
2023/06/24 05:13:06;;;;;;;8.10;7.10;;;19.30;99.90;;;;;;5092019;28;20187;-71
2023/06/24 05:15:32;;;;;;;9.27;7.20;;;19.70;99.90;;;;;;5088552;28;20661;-71
2023/06/24 05:17:58;;;;;;;7.60;7.00;;;19.90;99.90;;;;;;5090877;28;20214;-71
2023/06/24 05:20:23;;;;;;;10.90;7.10;;;20.60;99.90;;;;;;5086220;28;20252;-70
2023/06/24 05:22:49;;;;;;;7.60;6.90;;;20.20;99.90;;;;;;5090095;28;20233;-71
2023/06/24 05:25:14;;;;;;;7.33;6.63;;;20.10;99.90;;;;;;5086026;28;20212;-71
2023/06/24 05:27:40;;;;;;;8.87;7.23;;;20.30;99.90;;;;;;5077923;28;20165;-71
2023/06/24 05:30:06;;;;;;;10.43;6.80;;;20.50;99.90;;;;;;5065233;28;20254;-71
2023/06/24 05:32:32;;;;;;;7.37;6.57;;;20.90;99.90;;;;;;5085579;28;20199;-71
2023/06/24 05:34:57;;;;;;;6.63;6.00;;;21.10;99.90;;;;;;5064958;28;20779;-72
2023/06/24 05:37:23;;;;;;;7.70;7.00;;;21.00;99.90;;;;;;5083656;28;20318;-71
2023/06/24 05:39:49;;;;;;;9.90;6.90;;;21.10;99.90;;;;;;5081559;28;20209;-72
2023/06/24 05:42:14;;;;;;;7.83;7.13;;;21.50;99.90;;;;;;5085889;28;20204;-72
2023/06/24 05:44:40;;;;;;;7.53;6.77;;;21.80;99.90;;;;;;5085599;28;20235;-72
2023/06/24 05:47:05;;;;;;;6.90;6.20;;;21.50;99.90;;;;;;5090798;28;20352;-72
2023/06/24 05:49:31;;;;;;;8.20;7.10;;;21.40;99.90;;;;;;5081489;28;20216;-71
2023/06/24 05:51:57;;;;;;;8.17;6.17;;;21.60;99.90;;;;;;5082346;28;20200;-71
2023/06/24 05:54:23;;;;;;;6.93;6.23;;;21.60;99.90;;;;;;5065121;28;20174;-71
2023/06/24 05:56:49;;;;;;;7.20;6.50;;;21.70;99.90;;;;;;5087331;28;20919;-71
2023/06/24 05:59:14;;;;;;;6.57;5.80;;;22.50;99.90;;;;;;5085923;28;20190;-70
2023/06/24 06:01:41;;;;;;;8.80;6.47;;;22.30;99.90;;;;;;5080534;28;20210;-70
2023/06/24 06:04:07;;;;;;;9.97;6.77;;;21.50;99.90;;;;;;5082865;28;20419;-70
2023/06/24 06:06:32;;;;;;;6.57;6.00;;;22.00;99.90;;;;;;5085344;28;20173;-71
2023/06/24 06:08:59;;;;;;;9.50;6.10;;;22.40;99.90;;;;;;5082542;28;20181;-70
2023/06/24 06:11:24;;;;;;;8.33;7.43;;;21.50;99.90;;;;;;5081664;28;20632;-70
2023/06/24 06:13:50;;;;;;;8.60;5.50;;;22.10;99.90;;;;;;5086219;28;20513;-73
2023/06/24 06:16:16;;;;;;;7.33;6.47;;;22.00;99.90;;;;;;5089983;28;20185;-71
2023/06/24 06:18:41;;;;;;;6.90;6.10;;;22.60;99.90;;;;;;5062774;28;20791;-71
2023/06/24 06:21:07;;;;;;;6.43;5.60;;;22.10;99.90;;;;;;5089308;28;20173;-70
2023/06/24 06:23:33;;;;;;;9.00;7.60;;;22.70;99.90;;;;;;5064071;28;20529;-71
2023/06/24 06:25:58;;;;;;;12.20;6.83;;;22.20;99.90;;;;;;5070218;28;20169;-71
2023/06/24 06:28:24;;;;;;;7.20;6.53;;;22.10;99.90;;;;;;5089874;28;20170;-71
2023/06/24 06:30:49;;;;;;;7.37;6.67;;;22.30;99.90;;;;;;5067754;28;20182;-69
2023/06/24 06:33:15;;;;;;;6.40;5.80;;;22.90;99.90;;;;;;5089856;28;20594;-70
2023/06/24 06:35:40;;;;;;;6.40;5.77;;;23.20;99.90;;;;;;5066720;28;20654;-71
2023/06/24 06:38:06;;;;;;;6.23;5.37;;;22.50;99.90;;;;;;5070826;28;20169;-71
2023/06/24 06:40:32;;;;;;;6.97;6.27;;;23.40;99.90;;;;;;5082366;28;20208;-70
2023/06/24 06:42:57;;;;;;;5.23;4.73;;;23.70;99.90;;;;;;5069626;28;20185;-71
2023/06/24 06:45:23;;;;;;;6.57;5.97;;;24.60;99.90;;;;;;5063318;28;20626;-71
2023/06/24 06:47:50;;;;;;;7.93;4.70;;;24.90;99.90;;;;;;5085781;28;20546;-71
2023/06/24 06:50:16;;;;;;;4.70;4.30;;;25.00;99.90;;;;;;5090128;28;20177;-71
2023/06/24 06:52:41;;;;;;;6.47;5.30;;;25.30;99.90;;;;;;5067033;28;20474;-71
2023/06/24 06:55:07;;;;;;;4.90;4.27;;;24.90;99.90;;;;;;5064451;28;20182;-73
2023/06/24 06:57:33;;;;;;;5.77;5.27;;;24.80;99.90;;;;;;5082659;28;20170;-72
2023/06/24 06:59:58;;;;;;;11.80;5.70;;;24.60;99.90;;;;;;5069687;28;20924;-72
2023/06/24 07:02:24;;;;;;;7.53;6.37;;;24.30;99.90;;;;;;5084569;28;20667;-71
2023/06/24 07:04:50;;;;;;;6.73;6.13;;;23.30;99.90;;;;;;5067757;28;20176;-71
2023/06/24 07:07:17;;;;;;;7.67;6.90;;;23.30;99.90;;;;;;5086128;28;20390;-71
2023/06/24 07:09:42;;;;;;;7.33;6.60;;;24.20;99.90;;;;;;5085914;28;20411;-71
2023/06/24 07:12:08;;;;;;;8.00;5.90;;;24.70;99.90;;;;;;5094561;28;20615;-72
2023/06/24 07:14:34;;;;;;;8.00;4.40;;;25.60;99.90;;;;;;5085851;28;20181;-71
2023/06/24 07:17:00;;;;;;;4.90;4.50;;;25.20;99.90;;;;;;5091189;28;20419;-71
2023/06/24 07:19:25;;;;;;;6.27;5.67;;;24.30;99.90;;;;;;5072330;28;20201;-72
2023/06/24 07:21:52;;;;;;;5.53;4.40;;;25.30;99.90;;;;;;5085195;28;20810;-73
2023/06/24 07:24:17;;;;;;;6.17;5.67;;;26.10;99.90;;;;;;5068076;28;20252;-72
2023/06/24 07:26:43;;;;;;;6.30;5.53;;;24.80;99.90;;;;;;5090277;28;20996;-72
2023/06/24 07:29:09;;;;;;;7.63;5.10;;;25.50;99.90;;;;;;5084411;28;20184;-72
2023/06/24 07:31:35;;;;;;;5.83;5.23;;;23.80;99.90;;;;;;5067855;28;20204;-71
2023/06/24 07:34:01;;;;;;;5.50;5.00;;;23.40;99.90;;;;;;5072640;28;20178;-71
2023/06/24 07:36:27;;;;;;;5.60;4.90;;;23.90;99.90;;;;;;5085676;28;20403;-72
2023/06/24 07:38:53;;;;;;;5.10;4.60;;;24.20;99.90;;;;;;5085083;28;20196;-71
2023/06/24 07:41:18;;;;;;;7.27;4.70;;;24.50;99.90;;;;;;5070387;28;20191;-72
2023/06/24 07:43:44;;;;;;;3.60;3.30;;;24.80;99.90;;;;;;5083726;28;20655;-72
2023/06/24 07:46:09;;;;;;;4.73;4.30;;;25.20;99.90;;;;;;5084310;28;20248;-73
2023/06/24 07:48:35;;;;;;;5.27;4.20;;;26.90;99.90;;;;;;5085143;28;20594;-72
2023/06/24 07:51:01;;;;;;;5.17;4.00;;;26.50;99.90;;;;;;5083676;28;20176;-72
2023/06/24 07:53:26;;;;;;;5.47;4.97;;;24.80;99.90;;;;;;5089354;28;20173;-70
2023/06/24 07:55:52;;;;;;;5.43;4.80;;;24.20;99.90;;;;;;5073251;28;20180;-71
2023/06/24 07:58:19;;;;;;;6.90;4.60;;;25.60;99.90;;;;;;5088194;28;20165;-71
2023/06/24 08:00:45;;;;;;;4.77;4.07;;;25.60;99.90;;;;;;5069769;28;20198;-71
2023/06/24 08:03:11;;;;;;;4.63;3.27;;;24.70;99.90;;;;;;5067417;28;20436;-71
2023/06/24 08:05:38;;;;;;;5.90;3.90;;;24.80;99.90;;;;;;5089602;28;20404;-72
2023/06/24 08:08:04;;;;;;;4.13;3.73;;;25.20;99.90;;;;;;5086131;28;20445;-72
2023/06/24 08:10:30;;;;;;;5.80;4.00;;;24.90;99.90;;;;;;5086045;28;20421;-71
2023/06/24 08:12:55;;;;;;;4.90;4.50;;;25.80;99.90;;;;;;5089412;28;20431;-70
2023/06/24 08:15:21;;;;;;;4.50;4.10;;;25.10;99.90;;;;;;5086416;28;20170;-71
2023/06/24 08:17:52;;;;;;;3.77;3.47;;;25.70;99.90;;;;;;5088027;28;20173;-70
2023/06/24 08:20:17;;;;;;;5.00;4.50;;;25.90;99.90;;;;;;5089418;28;20611;-71
2023/06/24 08:22:43;;;;;;;5.73;4.90;;;24.50;99.90;;;;;;5091092;28;20433;-72
2023/06/24 08:25:08;;;;;;;3.80;3.37;;;25.10;99.90;;;;;;5086260;28;20232;-71
2023/06/24 08:30:56;;;;;;;5.53;4.17;;;26.00;99.90;;;;;;5083770;28;20185;-71
2023/06/24 08:33:22;;;;;;;6.13;4.43;;;25.60;99.90;;;;;;5073758;28;20439;-71
2023/06/24 08:35:47;;;;;;;4.77;4.37;;;26.70;99.90;;;;;;5069951;28;20619;-71
2023/06/24 08:38:13;;;;;;;4.30;3.90;;;27.00;99.90;;;;;;5091129;28;20269;-70
2023/06/24 08:40:43;;;;;;;5.70;3.70;;;25.40;99.90;;;;;;5085166;28;20205;-71
2023/06/24 08:43:09;;;;;;;7.27;4.33;;;25.60;99.90;;;;;;5089730;28;20185;-71
2023/06/24 08:45:35;;;;;;;4.20;3.90;;;26.10;99.90;;;;;;5083932;28;20426;-71
2023/06/24 08:48:02;;;;;;;3.37;3.07;;;25.70;99.90;;;;;;5088870;28;20419;-71
2023/06/24 08:50:34;;;;;;;3.20;2.90;;;25.80;99.90;;;;;;5090981;28;20182;-72
2023/06/24 08:53:06;;;;;;;4.00;3.70;;;25.20;99.90;;;;;;5076066;28;20458;-73
2023/06/24 08:55:34;;;;;;;7.00;4.00;;;25.80;99.90;;;;;;5089992;28;20416;-72
2023/06/24 08:58:00;;;;;;;3.80;3.50;;;25.50;99.90;;;;;;5058047;28;20426;-71
2023/06/24 09:00:27;;;;;;;4.33;3.60;;;25.60;99.90;;;;;;5084631;28;20463;-72
2023/06/24 09:02:52;;;;;;;3.70;3.40;;;24.60;99.90;;;;;;5086192;28;20192;-70
2023/06/24 09:05:18;;;;;;;4.73;4.30;;;25.90;99.90;;;;;;5092168;28;20412;-71
2023/06/24 09:07:43;;;;;;;7.03;4.30;;;26.00;99.90;;;;;;5082697;28;20193;-72
2023/06/24 09:10:09;;;;;;;5.17;3.30;;;26.00;99.90;;;;;;5090732;28;20395;-72
2023/06/24 09:12:35;;;;;;;4.37;3.97;;;25.50;99.90;;;;;;5089993;28;20267;-71
2023/06/24 09:15:02;;;;;;;5.90;4.90;;;24.90;99.90;;;;;;5087943;28;20185;-72
2023/06/24 09:17:28;;;;;;;4.73;4.20;;;25.00;99.90;;;;;;5090349;28;20258;-72
2023/06/24 09:20:02;;;;;;;4.47;3.63;;;25.40;99.90;;;;;;5081466;28;20478;-72
2023/06/24 09:22:30;;;;;;;3.97;3.67;;;26.90;99.90;;;;;;5092067;28;20428;-72
2023/06/24 09:24:56;;;;;;;4.30;3.80;;;26.30;99.90;;;;;;5080260;28;20412;-71
2023/06/24 09:27:23;;;;;;;5.57;3.70;;;25.80;99.90;;;;;;5085157;28;20416;-72
2023/06/24 09:29:49;;;;;;;4.10;3.80;;;25.30;99.90;;;;;;5088206;28;20177;-71
2023/06/24 09:32:15;;;;;;;8.13;3.80;;;25.40;99.90;;;;;;5084410;28;20443;-71
2023/06/24 09:34:40;;;;;;;5.57;3.97;;;26.40;99.90;;;;;;5086602;28;20234;-71
2023/06/24 09:37:06;;;;;;;4.07;3.67;;;25.30;99.90;;;;;;5068063;28;20245;-72
2023/06/24 09:39:37;;;;;;;3.50;3.20;;;25.70;99.90;;;;;;5091480;28;20204;-72
2023/06/24 09:42:04;;;;;;;3.60;3.03;;;26.40;99.90;;;;;;5074989;28;20221;-72
2023/06/24 09:44:30;;;;;;;3.60;3.30;;;26.50;99.90;;;;;;5086806;28;20902;-72
2023/06/24 09:46:56;;;;;;;10.73;4.93;;;27.10;99.90;;;;;;5088308;28;20400;-71
2023/06/24 09:49:22;;;;;;;3.90;3.57;;;26.70;99.90;;;;;;5079596;28;20170;-71
2023/06/24 09:51:52;;;;;;;3.87;3.57;;;27.50;99.90;;;;;;5086412;28;20828;-71
2023/06/24 09:54:18;;;;;;;3.67;3.37;;;27.60;99.90;;;;;;5087601;28;20441;-71
2023/06/24 09:56:48;;;;;;;3.67;3.37;;;27.00;99.90;;;;;;5071115;28;20900;-71
2023/06/24 09:59:14;;;;;;;3.30;3.00;;;26.80;99.90;;;;;;5081677;28;20221;-70
2023/06/24 10:01:43;;;;;;;4.43;3.10;;;26.30;99.90;;;;;;5086848;28;20800;-72
2023/06/24 10:04:14;;;;;;;3.33;3.03;;;26.80;99.90;;;;;;5071140;28;20817;-71
2023/06/24 10:06:40;;;;;;;3.33;2.60;;;28.00;99.90;;;;;;5085839;28;20422;-72
2023/06/24 10:09:06;;;;;;;3.00;2.63;;;27.70;99.90;;;;;;5089556;28;20788;-72
2023/06/24 10:11:32;;;;;;;3.70;3.40;;;26.60;99.90;;;;;;5088859;28;20442;-70
2023/06/24 10:13:58;;;;;;;2.60;2.40;;;25.40;99.90;;;;;;5087729;28;20667;-72
2023/06/24 10:16:24;;;;;;;3.03;2.80;;;25.10;99.90;;;;;;5090298;28;20184;-71
2023/06/24 10:18:49;;;;;;;5.10;3.10;;;25.50;99.90;;;;;;5084162;28;20173;-72
2023/06/24 10:21:16;;;;;;;3.30;3.03;;;25.20;99.90;;;;;;5083155;28;20403;-72
2023/06/24 10:23:42;;;;;;;5.37;3.50;;;25.00;99.90;;;;;;5086616;28;20171;-72
2023/06/24 10:26:28;;;;;;;6.27;3.87;;;24.60;99.90;;;;;;5083803;28;20761;-72
2023/06/24 10:29:06;;;;;;;4.00;3.70;;;24.70;99.90;;;;;;5054698;28;20935;-73
2023/06/24 10:31:40;;;;;;;4.70;3.93;;;24.50;99.90;;;;;;5069512;28;20423;-71
2023/06/24 10:34:28;;;;;;;3.60;3.30;;;23.80;99.90;;;;;;5081956;28;20817;-71
2023/06/24 10:37:19;;;;;;;3.30;2.90;;;24.10;99.90;;;;;;5086835;28;20415;-71
2023/06/24 10:39:55;;;;;;;3.80;3.40;;;24.30;99.90;;;;;;5092979;28;20458;-72
2023/06/24 10:42:42;;;;;;;6.60;3.60;;;24.30;99.90;;;;;;5089755;28;20525;-71
2023/06/24 10:45:15;;;;;;;3.70;3.40;;;24.40;99.90;;;;;;5080946;28;20500;-72
2023/06/24 10:47:41;;;;;;;4.70;4.10;;;24.10;99.90;;;;;;5083984;28;20402;-73
2023/06/24 10:50:09;;;;;;;5.50;3.43;;;24.10;99.90;;;;;;5093933;28;21015;-72
2023/06/24 10:52:39;;;;;;;3.67;3.37;;;24.00;99.90;;;;;;5068833;28;20852;-71
2023/06/24 10:55:07;;;;;;;4.63;4.23;;;23.80;99.90;;;;;;5068117;28;20418;-70
2023/06/24 10:57:32;;;;;;;4.27;3.30;;;23.80;99.90;;;;;;5088494;28;20411;-70
2023/06/24 10:59:58;;;;;;;3.70;3.40;;;23.60;99.90;;;;;;5073544;28;20518;-70
2023/06/24 11:02:26;;;;;;;5.67;3.70;;;23.90;99.90;;;;;;5090737;28;20262;-71
2023/06/24 11:04:54;;;;;;;4.50;3.67;;;23.60;99.90;;;;;;5092991;28;20168;-70
2023/06/24 11:07:31;;;;;;;3.90;3.10;;;23.70;99.90;;;;;;5087147;28;20407;-70
2023/06/24 11:10:01;;;;;;;4.53;4.13;;;23.80;99.90;;;;;;5074800;28;20782;-70
2023/06/24 11:12:30;;;;;;;5.63;3.90;;;23.60;99.90;;;;;;5092332;28;20915;-70
2023/06/24 11:15:01;;;;;;;14.17;5.97;;;23.70;99.90;;;;;;5067608;28;20981;-70
2023/06/24 11:17:27;;;;;;;4.30;3.80;;;23.50;99.90;;;;;;5094854;28;20920;-71
2023/06/24 11:19:54;;;;;;;4.30;3.50;;;23.70;99.90;;;;;;5083880;28;20452;-71
2023/06/24 11:22:19;;;;;;;5.73;4.27;;;23.70;99.90;;;;;;5069655;28;20969;-71
2023/06/24 11:24:45;;;;;;;5.43;3.60;;;24.00;99.90;;;;;;5069325;28;20472;-70
2023/06/24 11:27:11;;;;;;;4.60;4.20;;;24.20;99.90;;;;;;5082225;28;20403;-70
2023/06/24 11:29:36;;;;;;;4.40;4.10;;;24.00;99.90;;;;;;5072696;28;20179;-71
2023/06/24 11:32:03;;;;;;;4.67;4.27;;;23.90;99.90;;;;;;5084752;28;20199;-70
2023/06/24 11:34:29;;;;;;;4.77;4.30;;;24.00;99.90;;;;;;5094118;28;20623;-71
2023/06/24 11:36:55;;;;;;;4.40;4.00;;;24.00;99.90;;;;;;5069406;28;20503;-71
2023/06/24 11:39:25;;;;;;;4.30;3.87;;;23.60;99.90;;;;;;5076077;28;20551;-71
2023/06/24 11:41:52;;;;;;;4.00;3.70;;;23.50;99.90;;;;;;5073748;28;20191;-72
2023/06/24 11:44:23;;;;;;;3.93;3.63;;;23.60;99.90;;;;;;5093789;28;20439;-70
2023/06/24 11:46:49;;;;;;;4.40;4.00;;;24.00;99.90;;;;;;5092210;28;20471;-70
2023/06/24 11:49:15;;;;;;;5.33;4.83;;;23.90;99.90;;;;;;5072433;28;20498;-69
2023/06/24 11:51:48;;;;;;;7.70;3.73;;;24.10;99.90;;;;;;5074290;28;20204;-70
2023/06/24 11:54:19;;;;;;;4.30;3.80;;;23.90;99.90;;;;;;5085294;28;20944;-70
2023/06/24 11:56:51;;;;;;;3.53;3.23;;;23.90;99.90;;;;;;5071998;28;20415;-70
2023/06/24 11:59:26;;;;;;;4.40;3.73;;;24.10;99.90;;;;;;5084500;28;20449;-70
2023/06/24 12:01:54;;;;;;;4.27;3.87;;;24.10;99.90;;;;;;5064690;28;20454;-70
2023/06/24 12:04:20;;;;;;;3.90;3.53;;;23.90;99.90;;;;;;5073576;28;20414;-71
2023/06/24 12:06:46;;;;;;;4.33;3.97;;;24.00;99.90;;;;;;5066235;28;20752;-70
2023/06/24 12:09:12;;;;;;;5.00;3.30;;;23.80;99.90;;;;;;5084843;28;20482;-72
2023/06/24 12:11:38;;;;;;;4.80;4.20;;;23.80;99.90;;;;;;5083339;28;20198;-70
2023/06/24 12:14:05;;;;;;;4.10;3.80;;;24.00;99.90;;;;;;5090644;28;20452;-70
2023/06/24 12:16:31;;;;;;;3.70;3.40;;;24.20;99.90;;;;;;5074022;28;20412;-69
2023/06/24 12:18:57;;;;;;;3.37;3.10;;;24.40;99.90;;;;;;5070109;28;20415;-70
2023/06/24 12:21:22;;;;;;;6.60;4.40;;;24.30;99.90;;;;;;5086882;28;20263;-70
2023/06/24 12:23:48;;;;;;;4.83;4.43;;;24.50;99.90;;;;;;5083786;28;20234;-71
2023/06/24 12:26:14;;;;;;;3.90;3.50;;;24.20;99.90;;;;;;5072362;28;20216;-70
2023/06/24 12:28:39;;;;;;;5.37;4.20;;;24.20;99.90;;;;;;5081907;28;20257;-71
2023/06/24 12:31:05;;;;;;;4.17;3.77;;;24.50;99.90;;;;;;5086165;28;20516;-71
2023/06/24 12:33:31;;;;;;;3.90;3.50;;;24.60;99.90;;;;;;5090336;28;20177;-71
2023/06/24 12:35:57;;;;;;;4.47;4.07;;;24.70;99.90;;;;;;5087888;28;20175;-70
2023/06/24 12:38:22;;;;;;;4.80;3.90;;;24.40;99.90;;;;;;5090810;28;20174;-73
2023/06/24 12:40:48;;;;;;;4.17;3.60;;;24.60;99.90;;;;;;5065330;28;20754;-70
2023/06/24 12:43:14;;;;;;;4.40;4.00;;;24.70;99.90;;;;;;5071800;28;20192;-71